Terminal Aerodrome Forecast
Issued by NWS Paducah, KY

Home | Current Version | Previous Version | Text Only | Print | Product List | Glossary Off
Versions: 1 2 3 4 5 6 7 8 9 10 11 12 13 14

000
FTUS43 KPAH 212300
TAFEVV
TAF
KEVV 212320Z 2200/2224 VRB03KT P6SM FEW050
     FM220800 00000KT 6SM BR SKC
     FM221500 19003KT P6SM SKC=

USA.gov is the U.S. government's official web portal to all federal, state and local government web resources and services.